createdAt,value
2023-04-15T00:02:18.246Z,5.45
2023-04-15T00:06:22.746Z,5.43
2023-04-15T00:10:25.354Z,5.45
2023-04-15T00:14:28.145Z,5.52
2023-04-15T00:18:31.668Z,5.52
2023-04-15T00:22:36.196Z,5.51
2023-04-15T00:26:38.909Z,5.58
2023-04-15T00:30:41.676Z,5.59
2023-04-15T00:34:44.525Z,5.61
2023-04-15T00:38:48.557Z,5.61
2023-04-15T00:42:51.751Z,5.60
2023-04-15T00:46:55.018Z,5.59
2023-04-15T00:50:57.866Z,5.65
2023-04-15T00:55:02.342Z,5.64
2023-04-15T00:59:06.267Z,5.65
2023-04-15T01:03:09.977Z,5.64
2023-04-15T01:07:12.704Z,5.63
2023-04-15T01:11:17.118Z,5.60
2023-04-15T01:15:20.439Z,5.61
2023-04-15T01:19:23.157Z,5.66
2023-04-15T01:23:26.369Z,5.68
2023-04-15T01:27:31.281Z,5.69
2023-04-15T01:31:33.996Z,5.63
2023-04-15T01:35:37.226Z,5.64
2023-04-15T01:39:40.423Z,5.62
2023-04-15T01:43:44.397Z,5.61
2023-04-15T01:47:47.049Z,5.59
2023-04-15T01:51:49.718Z,5.61
2023-04-15T01:55:53.013Z,5.59
2023-04-15T01:59:57.182Z,5.57
2023-04-15T02:03:59.868Z,5.51
2023-04-15T02:08:02.540Z,5.50
2023-04-15T02:12:05.445Z,5.47
2023-04-15T02:16:18.572Z,5.49
2023-04-15T02:20:22.440Z,5.47
2023-04-15T02:24:25.083Z,5.51
2023-04-15T02:28:27.738Z,5.50
2023-04-15T02:32:31.726Z,5.48
2023-04-15T02:36:34.786Z,5.50
2023-04-15T02:40:37.660Z,5.51
2023-04-15T02:44:40.495Z,5.51
2023-04-15T02:48:44.930Z,5.51
2023-04-15T02:52:48.191Z,5.54
2023-04-15T02:56:51.204Z,5.51
2023-04-15T03:00:54.305Z,5.52
2023-04-15T03:04:58.264Z,5.46
2023-04-15T03:09:03.246Z,5.46
2023-04-15T03:13:05.942Z,5.43
2023-04-15T03:17:08.547Z,5.40
2023-04-15T03:21:12.496Z,5.33
2023-04-15T03:25:15.281Z,5.25
2023-04-15T03:29:17.849Z,5.22
2023-04-15T03:33:20.455Z,5.11
2023-04-15T03:37:24.468Z,5.05
2023-04-15T03:41:27.042Z,5.00
2023-04-15T03:45:29.726Z,4.96
2023-04-15T03:49:32.521Z,4.87
2023-04-15T03:53:36.719Z,4.85
2023-04-15T03:57:39.746Z,4.85
2023-04-15T04:01:42.442Z,4.79
2023-04-15T04:05:45.185Z,4.78
2023-04-15T04:09:49.148Z,4.74
2023-04-15T04:13:51.958Z,4.69
2023-04-15T04:17:54.632Z,4.66
2023-04-15T04:21:57.263Z,4.66
2023-04-15T04:26:01.247Z,4.65
2023-04-15T04:30:04.193Z,4.62
2023-04-15T04:34:06.780Z,4.61
2023-04-15T04:38:09.394Z,4.60
2023-04-15T04:42:13.343Z,4.58
2023-04-15T04:46:16.236Z,4.57
2023-04-15T04:50:18.916Z,4.51
2023-04-15T04:54:21.523Z,4.52
2023-04-15T04:58:25.844Z,4.50
2023-04-15T05:02:29.267Z,4.47
2023-04-15T05:06:32.675Z,4.51
2023-04-15T05:10:35.356Z,4.50
2023-04-15T05:14:39.855Z,4.49
2023-04-15T05:18:42.552Z,4.48
2023-04-15T05:22:45.211Z,4.51
2023-04-15T05:26:48.071Z,4.46
2023-04-15T05:30:52.183Z,4.47
2023-04-15T05:34:54.867Z,4.52
2023-04-15T05:38:57.472Z,4.50
2023-04-15T05:43:00.072Z,4.50
2023-04-15T05:47:05.146Z,4.51
2023-04-15T05:51:07.798Z,4.51
2023-04-15T05:55:11.115Z,4.50
2023-04-15T05:59:13.834Z,4.46
2023-04-15T06:03:18.788Z,4.47
2023-04-15T06:07:21.539Z,4.43
2023-04-15T06:11:24.251Z,4.42
2023-04-15T06:15:27.225Z,4.46
2023-04-15T06:19:31.923Z,4.46
2023-04-15T06:23:36.270Z,4.46
2023-04-15T06:27:39.050Z,4.50
2023-04-15T06:31:41.790Z,4.63
2023-04-15T06:35:45.933Z,4.77
2023-04-15T06:39:48.629Z,4.70
2023-04-15T06:43:51.477Z,4.61
2023-04-15T06:47:54.215Z,4.50
2023-04-15T06:51:58.456Z,4.53
2023-04-15T06:56:01.237Z,4.49
2023-04-15T07:00:05.845Z,4.52
2023-04-15T07:04:08.627Z,4.52
2023-04-15T07:08:15.716Z,4.52
2023-04-15T07:12:18.556Z,4.54
2023-04-15T07:16:22.127Z,4.69
2023-04-15T07:20:24.810Z,4.93
2023-04-15T07:24:29.032Z,5.05
2023-04-15T07:28:31.818Z,4.94
2023-04-15T07:32:34.662Z,4.83
2023-04-15T07:36:37.464Z,4.74
2023-04-15T07:40:42.381Z,4.80
2023-04-15T07:44:45.183Z,4.83
2023-04-15T07:48:47.977Z,4.86
2023-04-15T07:52:51.570Z,4.93
2023-04-15T07:56:56.154Z,4.90
2023-04-15T08:00:58.838Z,4.90
2023-04-15T08:05:03.021Z,4.96
2023-04-15T08:09:05.756Z,4.97
2023-04-15T08:13:09.749Z,5.01
2023-04-15T08:17:12.514Z,5.04
2023-04-15T08:21:15.492Z,5.05
2023-04-15T08:25:18.186Z,5.06
2023-04-15T08:29:22.143Z,5.06
2023-04-15T08:33:24.954Z,5.06
2023-04-15T08:37:27.929Z,4.97
2023-04-15T08:41:35.791Z,4.98
2023-04-15T08:45:40.630Z,4.97
2023-04-15T08:49:44.161Z,4.99
2023-04-15T08:53:47.869Z,5.01
2023-04-15T08:57:50.687Z,5.06
2023-04-15T09:01:55.525Z,5.10
2023-04-15T09:05:58.712Z,5.11
2023-04-15T09:10:01.652Z,5.18
2023-04-15T09:14:04.466Z,5.28
2023-04-15T09:18:08.557Z,5.40
2023-04-15T09:22:12.024Z,5.39
2023-04-15T09:26:17.566Z,5.42
2023-04-15T09:30:20.246Z,5.41
2023-04-15T09:34:36.854Z,5.46
2023-04-15T09:38:56.257Z,5.57
2023-04-15T09:42:59.099Z,5.65
2023-04-15T09:47:01.835Z,5.69
2023-04-15T09:51:07.164Z,5.77
2023-04-15T09:55:10.089Z,5.74
2023-04-15T09:59:12.859Z,5.80
2023-04-15T10:03:19.141Z,5.81
2023-04-15T10:07:24.443Z,5.86
2023-04-15T10:11:31.572Z,5.93
2023-04-15T10:15:35.420Z,5.93
2023-04-15T10:19:39.132Z,5.93
2023-04-15T10:23:43.986Z,6.05
2023-04-15T10:27:48.603Z,6.10
2023-04-15T10:31:51.793Z,6.12
2023-04-15T10:35:56.752Z,6.35
2023-04-15T10:40:00.746Z,6.49
2023-04-15T10:44:05.367Z,6.57
2023-04-15T10:48:09.175Z,6.56
2023-04-15T10:52:12.496Z,6.86
2023-04-15T10:56:18.374Z,7.24
2023-04-15T11:00:25.470Z,7.27
2023-04-15T11:04:53.174Z,7.06
2023-04-15T11:08:59.442Z,7.12
2023-04-15T11:13:05.532Z,7.30
2023-04-15T11:17:08.621Z,7.30
2023-04-15T11:21:11.880Z,7.35
2023-04-15T11:25:23.795Z,7.61
2023-04-15T11:29:32.334Z,7.85
2023-04-15T11:33:35.340Z,7.73
2023-04-15T11:37:38.001Z,7.67
2023-04-15T11:41:44.063Z,7.39
2023-04-15T11:45:53.290Z,7.44
2023-04-15T11:49:56.046Z,7.45
2023-04-15T11:53:58.787Z,7.42
2023-04-15T11:58:09.804Z,7.51
2023-04-15T12:02:14.568Z,7.38
2023-04-15T12:06:19.676Z,7.31
2023-04-15T12:10:25.752Z,7.30
2023-04-15T12:14:29.843Z,7.36
2023-04-15T12:18:33.880Z,7.35
2023-04-15T12:22:39.172Z,7.39
2023-04-15T12:26:47.030Z,7.23
2023-04-15T12:30:51.562Z,7.24
2023-04-15T12:34:55.711Z,7.11
2023-04-15T12:38:58.424Z,7.13
2023-04-15T12:43:01.120Z,7.12
2023-04-15T12:47:04.377Z,7.17
2023-04-15T12:51:08.482Z,7.07
2023-04-15T12:55:11.162Z,7.11
2023-04-15T12:59:14.012Z,7.06
2023-04-15T13:03:17.136Z,6.98
2023-04-15T13:07:21.355Z,6.90
2023-04-15T13:11:24.312Z,6.93
2023-04-15T13:15:26.931Z,6.85
2023-04-15T13:19:29.888Z,6.75
2023-04-15T13:23:33.946Z,6.83
2023-04-15T13:27:36.873Z,6.81
2023-04-15T13:31:39.523Z,6.82
2023-04-15T13:35:42.319Z,6.78
2023-04-15T13:39:46.792Z,6.81
2023-04-15T13:43:49.423Z,6.77
2023-04-15T13:47:52.136Z,6.72
2023-04-15T13:51:54.823Z,6.70
2023-04-15T13:55:58.781Z,6.69
2023-04-15T14:00:01.475Z,6.73
2023-04-15T14:04:04.633Z,6.82
2023-04-15T14:08:07.478Z,6.86
2023-04-15T14:12:11.581Z,6.88
2023-04-15T14:16:14.240Z,6.86
2023-04-15T14:20:17.351Z,6.78
2023-04-15T14:24:20.853Z,6.71
2023-04-15T14:28:25.523Z,6.70
2023-04-15T14:32:28.433Z,6.68
2023-04-15T14:36:31.965Z,6.70
2023-04-15T14:40:34.806Z,6.63
2023-04-15T14:44:38.833Z,6.64
2023-04-15T14:48:41.598Z,6.68
2023-04-15T14:52:44.241Z,6.66
2023-04-15T14:56:46.836Z,6.70
2023-04-15T15:00:50.856Z,6.75
2023-04-15T15:04:53.764Z,6.75
2023-04-15T15:08:56.862Z,6.77
2023-04-15T15:12:59.830Z,6.76
2023-04-15T15:17:04.835Z,6.68
2023-04-15T15:21:07.480Z,6.63
2023-04-15T15:25:10.284Z,6.65
2023-04-15T15:29:12.923Z,6.62
2023-04-15T15:33:16.950Z,6.61
2023-04-15T15:37:19.655Z,6.56
2023-04-15T15:41:22.457Z,6.58
2023-04-15T15:45:25.135Z,6.56
2023-04-15T15:49:29.242Z,6.57
2023-04-15T15:53:32.824Z,6.57
2023-04-15T15:57:35.532Z,6.63
2023-04-15T16:01:38.820Z,6.65
2023-04-15T16:05:42.818Z,6.73
2023-04-15T16:09:45.795Z,6.78
2023-04-15T16:13:48.432Z,6.79
2023-04-15T16:17:51.551Z,6.92
2023-04-15T16:21:55.681Z,6.82
2023-04-15T16:25:58.510Z,6.76
2023-04-15T16:30:01.328Z,6.70
2023-04-15T16:34:03.952Z,6.72
2023-04-15T16:38:08.229Z,6.74
2023-04-15T16:42:11.172Z,6.78
2023-04-15T16:46:14.058Z,6.79
2023-04-15T16:50:16.697Z,6.85
2023-04-15T16:54:20.688Z,6.85
2023-04-15T16:58:23.294Z,6.84
2023-04-15T17:02:26.420Z,6.74
2023-04-15T17:06:29.421Z,6.75
2023-04-15T17:10:33.521Z,6.73
2023-04-15T17:14:36.139Z,6.68
2023-04-15T17:18:39.296Z,6.67
2023-04-15T17:22:41.960Z,6.61
2023-04-15T17:26:46.941Z,6.61
2023-04-15T17:30:49.638Z,6.59
2023-04-15T17:34:52.339Z,6.53
2023-04-15T17:38:56.494Z,6.54
2023-04-15T17:43:00.545Z,6.55
2023-04-15T17:47:03.465Z,6.53
2023-04-15T17:51:06.166Z,6.51
2023-04-15T17:55:09.633Z,6.51
2023-04-15T17:59:13.702Z,6.47
2023-04-15T18:03:16.437Z,6.47
2023-04-15T18:07:19.330Z,6.45
2023-04-15T18:11:22.161Z,6.47
2023-04-15T18:15:26.398Z,6.45
2023-04-15T18:19:29.093Z,6.42
2023-04-15T18:23:31.786Z,6.40
2023-04-15T18:27:35.563Z,6.35
2023-04-15T18:31:39.622Z,6.33
2023-04-15T18:35:42.988Z,6.29
2023-04-15T18:39:45.681Z,6.27
2023-04-15T18:43:48.338Z,6.27
2023-04-15T18:47:52.502Z,6.25
2023-04-15T18:51:55.572Z,6.23
2023-04-15T18:56:00.791Z,6.21
2023-04-15T19:00:03.646Z,6.18
2023-04-15T19:04:07.894Z,6.17
2023-04-15T19:08:11.709Z,6.16
2023-04-15T19:12:14.373Z,6.11
2023-04-15T19:16:17.144Z,6.10
2023-04-15T19:20:21.229Z,6.09
2023-04-15T19:24:23.951Z,6.04
2023-04-15T19:28:28.265Z,6.02
2023-04-15T19:32:30.955Z,6.04
2023-04-15T19:36:35.096Z,6.03
2023-04-15T19:40:37.980Z,6.02
2023-04-15T19:44:42.778Z,6.01
2023-04-15T19:48:45.485Z,5.99
2023-04-15T19:52:49.801Z,5.97
2023-04-15T19:56:52.619Z,5.96
2023-04-15T20:00:55.456Z,5.95
2023-04-15T20:04:58.112Z,5.93
2023-04-15T20:09:02.234Z,5.96
2023-04-15T20:13:04.955Z,5.92
2023-04-15T20:17:07.619Z,5.91
2023-04-15T20:21:10.259Z,5.92
2023-04-15T20:25:14.461Z,5.94
2023-04-15T20:29:17.183Z,5.91
2023-04-15T20:33:19.801Z,5.89
2023-04-15T20:37:22.583Z,5.88
2023-04-15T20:41:26.683Z,5.89
2023-04-15T20:45:30.510Z,5.89
2023-04-15T20:49:35.548Z,5.88
2023-04-15T20:53:38.413Z,5.87
2023-04-15T20:57:42.433Z,5.88
2023-04-15T21:01:46.066Z,5.90
2023-04-15T21:05:49.378Z,5.87
2023-04-15T21:09:52.026Z,5.88
2023-04-15T21:13:56.005Z,5.87
2023-04-15T21:17:59.033Z,5.88
2023-04-15T21:22:01.709Z,5.88
2023-04-15T21:26:04.586Z,5.86
2023-04-15T21:30:09.808Z,5.87
2023-04-15T21:34:12.559Z,5.86
2023-04-15T21:38:15.306Z,5.87
2023-04-15T21:42:17.978Z,5.85
2023-04-15T21:46:25.301Z,5.89
2023-04-15T21:50:29.878Z,5.90
2023-04-15T21:54:33.640Z,5.89
2023-04-15T21:58:36.270Z,5.92
2023-04-15T22:02:40.370Z,5.91
2023-04-15T22:06:43.069Z,5.87
2023-04-15T22:10:45.748Z,5.84
2023-04-15T22:14:48.374Z,5.79
2023-04-15T22:18:52.407Z,5.79
2023-04-15T22:22:55.014Z,5.77
2023-04-15T22:26:59.011Z,5.80
2023-04-15T22:31:02.476Z,5.80
2023-04-15T22:35:07.317Z,5.79
2023-04-15T22:39:09.998Z,5.82
2023-04-15T22:43:12.635Z,5.78
2023-04-15T22:47:15.366Z,5.80
2023-04-15T22:51:23.918Z,5.79
2023-04-15T22:55:26.549Z,5.79
2023-04-15T22:59:29.205Z,5.78
2023-04-15T23:03:32.149Z,5.80
2023-04-15T23:07:44.201Z,5.76
2023-04-15T23:11:48.028Z,5.72
2023-04-15T23:15:50.684Z,5.72
2023-04-15T23:19:53.312Z,5.69
2023-04-15T23:23:57.283Z,5.68
2023-04-15T23:27:59.893Z,5.69
2023-04-15T23:32:02.898Z,5.67
2023-04-15T23:36:06.371Z,5.64
2023-04-15T23:40:11.889Z,5.66
2023-04-15T23:44:14.504Z,5.68
2023-04-15T23:48:17.113Z,5.71
2023-04-15T23:52:19.746Z,5.69
2023-04-15T23:56:23.698Z,5.70
